createdAt,value
2023-03-08T00:01:13.258Z,1.20
2023-03-08T00:03:43.179Z,1.40
2023-03-08T00:06:14.213Z,1.57
2023-03-08T00:08:42.765Z,1.73
2023-03-08T00:11:11.720Z,1.57
2023-03-08T00:13:40.209Z,1.80
2023-03-08T00:16:09.522Z,1.70
2023-03-08T00:18:38.039Z,1.00
2023-03-08T00:21:08.737Z,1.20
2023-03-08T00:23:37.236Z,1.10
2023-03-08T00:26:06.118Z,1.40
2023-03-08T00:28:34.611Z,1.10
2023-03-08T00:31:03.882Z,1.30
2023-03-08T00:33:33.273Z,1.00
2023-03-08T00:36:02.605Z,1.00
2023-03-08T00:38:33.046Z,1.37
2023-03-08T00:41:01.422Z,1.10
2023-03-08T00:43:29.854Z,1.00
2023-03-08T00:45:58.318Z,1.00
2023-03-08T00:48:26.932Z,1.00
2023-03-08T00:50:55.288Z,0.90
2023-03-08T00:53:23.652Z,0.90
2023-03-08T00:55:54.380Z,0.97
2023-03-08T00:58:23.121Z,0.90
2023-03-08T01:00:51.603Z,0.90
2023-03-08T01:03:21.799Z,0.90
2023-03-08T01:05:51.069Z,0.90
2023-03-08T01:08:20.224Z,0.90
2023-03-08T01:10:49.624Z,0.90
2023-03-08T01:13:19.866Z,1.00
2023-03-08T01:15:48.356Z,0.90
2023-03-08T01:18:16.679Z,1.93
2023-03-08T01:20:45.074Z,0.90
2023-03-08T01:23:13.459Z,1.30
2023-03-08T01:25:41.796Z,1.60
2023-03-08T01:28:10.111Z,1.20
2023-03-08T01:30:40.016Z,1.67
2023-03-08T01:33:08.401Z,1.50
2023-03-08T01:35:36.900Z,1.10
2023-03-08T01:38:05.288Z,1.40
2023-03-08T01:40:33.640Z,1.50
2023-03-08T01:43:12.649Z,1.83
2023-03-08T01:45:59.428Z,1.40
2023-03-08T01:48:32.212Z,1.60
2023-03-08T01:51:00.677Z,1.10
2023-03-08T01:53:29.072Z,1.50
2023-03-08T01:55:57.492Z,1.50
2023-03-08T01:58:26.821Z,1.30
2023-03-08T02:00:55.377Z,1.20
2023-03-08T02:03:23.869Z,2.03
2023-03-08T02:05:53.747Z,1.10
2023-03-08T02:08:22.153Z,1.07
2023-03-08T02:10:51.435Z,1.10
2023-03-08T02:13:21.777Z,1.20
2023-03-08T02:15:51.344Z,1.20
2023-03-08T02:18:19.702Z,1.10
2023-03-08T02:20:48.066Z,0.97
2023-03-08T02:23:18.678Z,0.90
2023-03-08T02:25:51.931Z,1.10
2023-03-08T02:28:20.666Z,1.57
2023-03-08T02:30:49.601Z,1.90
2023-03-08T02:33:18.020Z,1.80
2023-03-08T02:35:46.626Z,2.10
2023-03-08T02:38:16.170Z,1.97
2023-03-08T02:40:45.919Z,2.60
2023-03-08T02:43:14.306Z,1.87
2023-03-08T02:45:42.681Z,2.40
2023-03-08T02:48:11.319Z,2.30
2023-03-08T02:50:39.718Z,2.30
2023-03-08T02:53:08.212Z,2.63
2023-03-08T02:55:37.242Z,3.37
2023-03-08T02:58:07.510Z,3.10
2023-03-08T03:00:36.493Z,2.50
2023-03-08T03:03:04.899Z,3.47
2023-03-08T03:05:33.293Z,3.23
2023-03-08T03:08:01.875Z,3.10
2023-03-08T03:10:30.286Z,2.80
2023-03-08T03:12:58.672Z,3.07
2023-03-08T03:15:28.439Z,2.30
2023-03-08T03:17:56.872Z,1.10
2023-03-08T03:20:25.411Z,1.00
2023-03-08T03:22:53.818Z,0.90
2023-03-08T03:25:22.169Z,0.90
2023-03-08T03:27:50.493Z,1.57
2023-03-08T03:30:18.934Z,1.10
2023-03-08T03:32:48.815Z,0.90
2023-03-08T03:35:17.351Z,1.00
2023-03-08T03:37:45.722Z,1.40
2023-03-08T03:40:14.766Z,1.00
2023-03-08T03:42:43.193Z,1.00
2023-03-08T03:45:11.971Z,1.00
2023-03-08T03:47:40.326Z,0.90
2023-03-08T03:50:10.923Z,1.30
2023-03-08T03:52:39.234Z,1.23
2023-03-08T03:55:08.392Z,1.20
2023-03-08T03:57:36.795Z,1.00
2023-03-08T04:00:06.128Z,1.67
2023-03-08T04:02:34.488Z,1.13
2023-03-08T04:05:02.907Z,1.60
2023-03-08T04:07:32.688Z,1.27
2023-03-08T04:10:01.601Z,1.00
2023-03-08T04:12:30.030Z,1.17
2023-03-08T04:14:58.478Z,1.63
2023-03-08T04:17:26.884Z,1.00
2023-03-08T04:19:55.206Z,1.00
2023-03-08T04:22:23.659Z,1.00
2023-03-08T04:24:53.415Z,1.27
2023-03-08T04:27:21.788Z,1.53
2023-03-08T04:29:50.098Z,1.00
2023-03-08T04:32:18.479Z,1.00
2023-03-08T04:34:46.851Z,1.40
2023-03-08T04:37:15.371Z,1.80
2023-03-08T04:39:43.758Z,1.10
2023-03-08T04:42:14.822Z,1.00
2023-03-08T04:44:43.224Z,2.07
2023-03-08T04:47:12.026Z,0.90
2023-03-08T04:49:40.489Z,2.07
2023-03-08T04:52:09.221Z,1.50
2023-03-08T04:54:37.701Z,1.17
2023-03-08T04:57:06.621Z,2.30
2023-03-08T04:59:36.567Z,1.20
2023-03-08T05:02:05.150Z,1.00
2023-03-08T05:04:33.557Z,1.30
2023-03-08T05:07:01.933Z,1.60
2023-03-08T05:09:30.385Z,0.90
2023-03-08T05:11:59.606Z,1.27
2023-03-08T05:14:27.973Z,1.37
2023-03-08T05:16:58.450Z,1.13
2023-03-08T05:19:26.808Z,2.13
2023-03-08T05:21:55.286Z,1.80
2023-03-08T05:24:23.628Z,1.70
2023-03-08T05:26:52.233Z,2.13
2023-03-08T05:29:20.639Z,1.10
2023-03-08T05:31:51.300Z,1.00
2023-03-08T05:34:21.157Z,1.43
2023-03-08T05:36:49.530Z,0.93
2023-03-08T05:39:17.872Z,1.00
2023-03-08T05:41:46.244Z,1.20
2023-03-08T05:44:14.629Z,1.00
2023-03-08T05:46:43.054Z,1.13
2023-03-08T05:49:11.424Z,0.90
2023-03-08T05:51:41.340Z,1.57
2023-03-08T05:54:09.807Z,1.00
2023-03-08T05:56:38.278Z,2.80
2023-03-08T05:59:08.436Z,1.00
2023-03-08T06:01:39.119Z,1.10
2023-03-08T06:04:07.704Z,1.00
2023-03-08T06:06:36.228Z,2.10
2023-03-08T06:09:06.044Z,1.63
2023-03-08T06:11:34.433Z,1.27
2023-03-08T06:14:02.858Z,1.10
2023-03-08T06:16:31.304Z,1.93
2023-03-08T06:18:59.769Z,1.47
2023-03-08T06:21:28.120Z,2.50
2023-03-08T06:23:56.480Z,2.90
2023-03-08T06:26:26.349Z,0.90
2023-03-08T06:28:54.755Z,0.90
2023-03-08T06:31:23.149Z,0.87
2023-03-08T06:33:51.580Z,1.10
2023-03-08T06:36:20.829Z,1.10
2023-03-08T06:38:49.826Z,1.63
2023-03-08T06:41:19.074Z,1.87
2023-03-08T06:43:48.874Z,1.57
2023-03-08T06:46:18.186Z,1.10
2023-03-08T06:48:46.850Z,1.27
2023-03-08T06:51:15.334Z,1.47
2023-03-08T06:53:43.890Z,1.17
2023-03-08T06:56:13.977Z,1.10
2023-03-08T06:58:42.480Z,1.00
2023-03-08T07:01:12.296Z,2.43
2023-03-08T07:03:40.670Z,2.80
2023-03-08T07:06:10.144Z,1.67
2023-03-08T07:08:40.378Z,1.97
2023-03-08T07:11:09.852Z,2.23
2023-03-08T07:13:38.304Z,1.33
2023-03-08T07:16:10.613Z,1.70
2023-03-08T07:18:40.575Z,1.63
2023-03-08T07:21:10.282Z,1.30
2023-03-08T07:23:38.750Z,2.10
2023-03-08T07:26:07.486Z,1.30
2023-03-08T07:28:36.266Z,0.90
2023-03-08T07:31:05.243Z,1.83
2023-03-08T07:33:33.822Z,1.27
2023-03-08T07:36:03.721Z,1.67
2023-03-08T07:38:32.149Z,1.77
2023-03-08T07:41:00.947Z,2.60
2023-03-08T07:43:29.331Z,1.57
2023-03-08T07:46:00.771Z,2.57
2023-03-08T07:48:29.611Z,1.97
2023-03-08T07:51:02.370Z,3.30
2023-03-08T07:53:32.497Z,1.57
2023-03-08T07:56:01.178Z,4.90
2023-03-08T07:58:29.888Z,3.47
2023-03-08T08:00:58.288Z,1.40
2023-03-08T08:03:26.779Z,3.03
2023-03-08T08:05:55.493Z,2.17
2023-03-08T08:08:24.004Z,5.23
2023-03-08T08:10:53.788Z,4.40
2023-03-08T08:13:22.221Z,1.73
2023-03-08T08:15:59.416Z,5.33
2023-03-08T08:18:27.796Z,5.40
2023-03-08T08:21:02.184Z,6.70
2023-03-08T08:23:30.539Z,4.47
2023-03-08T08:26:00.472Z,3.90
2023-03-08T08:28:29.292Z,3.77
2023-03-08T08:30:58.280Z,2.70
2023-03-08T08:33:26.678Z,5.73
2023-03-08T08:35:55.016Z,4.80
2023-03-08T08:38:23.843Z,2.03
2023-03-08T08:40:55.466Z,3.63
2023-03-08T08:43:25.614Z,3.03
2023-03-08T08:45:55.673Z,1.93
2023-03-08T08:48:24.481Z,5.13
2023-03-08T08:50:53.370Z,5.47
2023-03-08T08:53:22.341Z,3.53
2023-03-08T08:55:50.867Z,3.67
2023-03-08T08:58:19.935Z,3.17
2023-03-08T09:00:49.868Z,2.53
2023-03-08T09:03:18.298Z,3.70
2023-03-08T09:05:47.024Z,2.57
2023-03-08T09:08:15.727Z,3.40
2023-03-08T09:10:44.505Z,1.93
2023-03-08T09:13:13.742Z,2.63
2023-03-08T09:15:42.186Z,2.57
2023-03-08T09:18:12.018Z,2.40
2023-03-08T09:20:40.579Z,2.10
2023-03-08T09:23:10.241Z,3.57
2023-03-08T09:25:38.838Z,5.93
2023-03-08T09:28:07.577Z,2.83
2023-03-08T09:30:36.198Z,3.87
2023-03-08T09:33:06.063Z,3.77
2023-03-08T09:35:35.897Z,4.00
2023-03-08T09:38:04.567Z,4.53
2023-03-08T09:40:37.523Z,3.00
2023-03-08T09:43:08.451Z,3.77
2023-03-08T09:45:38.609Z,6.27
2023-03-08T09:48:11.259Z,4.70
2023-03-08T09:50:44.900Z,2.73
2023-03-08T09:53:17.613Z,5.17
2023-03-08T09:55:49.582Z,4.40
2023-03-08T09:58:21.410Z,4.10
2023-03-08T10:00:52.405Z,3.70
2023-03-08T10:03:31.210Z,3.67
2023-03-08T10:06:03.890Z,2.33
2023-03-08T10:08:34.544Z,3.93
2023-03-08T10:11:05.257Z,1.87
2023-03-08T10:13:34.786Z,4.23
2023-03-08T10:16:15.016Z,5.27
2023-03-08T10:18:46.326Z,4.33
2023-03-08T10:21:18.479Z,3.90
2023-03-08T10:23:48.165Z,2.60
2023-03-08T10:26:18.623Z,3.03
2023-03-08T10:28:47.445Z,3.87
2023-03-08T10:31:23.875Z,3.63
2023-03-08T10:33:54.421Z,1.67
2023-03-08T10:36:24.815Z,3.87
2023-03-08T10:39:01.991Z,2.13
2023-03-08T10:41:39.082Z,2.90
2023-03-08T10:44:07.589Z,2.53
2023-03-08T10:46:36.216Z,2.30
2023-03-08T10:49:08.766Z,2.03
2023-03-08T10:51:40.440Z,3.00
2023-03-08T10:54:14.084Z,2.57
2023-03-08T10:56:46.272Z,3.00
2023-03-08T10:59:19.465Z,2.50
2023-03-08T11:01:51.353Z,3.25
2023-03-08T11:04:20.980Z,1.43
2023-03-08T11:06:50.861Z,1.80
2023-03-08T11:09:23.954Z,2.50
2023-03-08T11:11:52.468Z,2.40
2023-03-08T11:14:21.092Z,2.17
2023-03-08T11:17:10.387Z,2.37
2023-03-08T11:19:45.965Z,2.03
2023-03-08T11:22:20.532Z,2.57
2023-03-08T11:24:54.810Z,3.57
2023-03-08T11:27:31.302Z,2.20
2023-03-08T11:30:04.980Z,2.83
2023-03-08T11:32:39.576Z,2.27
2023-03-08T11:35:15.070Z,2.23
2023-03-08T11:37:47.297Z,2.53
2023-03-08T11:40:20.072Z,3.10
2023-03-08T11:42:52.487Z,2.00
2023-03-08T11:45:24.154Z,2.03
2023-03-08T11:48:16.485Z,1.90
2023-03-08T11:50:47.541Z,3.10
2023-03-08T11:53:25.900Z,3.13
2023-03-08T11:56:00.022Z,1.90
2023-03-08T11:58:31.382Z,2.47
2023-03-08T12:01:02.483Z,2.10
2023-03-08T12:03:32.834Z,2.80
2023-03-08T12:06:03.053Z,2.30
2023-03-08T12:08:36.036Z,3.60
2023-03-08T12:11:06.298Z,3.27
2023-03-08T12:13:35.650Z,3.33
2023-03-08T12:16:09.243Z,2.97
2023-03-08T12:18:39.712Z,2.57
2023-03-08T12:21:15.882Z,1.47
2023-03-08T12:23:49.999Z,2.07
2023-03-08T12:26:20.529Z,1.60
2023-03-08T12:28:50.605Z,2.27
2023-03-08T12:31:28.459Z,1.10
2023-03-08T12:33:58.490Z,2.23
2023-03-08T12:36:38.164Z,1.23
2023-03-08T12:39:12.312Z,1.97
2023-03-08T12:41:41.624Z,2.93
2023-03-08T12:44:24.869Z,3.13
2023-03-08T12:47:02.940Z,2.23
2023-03-08T12:49:34.058Z,3.70
2023-03-08T12:52:04.072Z,3.10
2023-03-08T12:54:35.073Z,4.27
2023-03-08T12:57:04.522Z,3.00
2023-03-08T12:59:37.851Z,1.40
2023-03-08T13:02:21.330Z,2.00
2023-03-08T13:04:49.876Z,2.37
2023-03-08T13:07:24.358Z,2.87
2023-03-08T13:09:56.837Z,2.23
2023-03-08T13:12:27.213Z,2.77
2023-03-08T13:15:03.463Z,1.87
2023-03-08T13:17:35.656Z,1.60
2023-03-08T13:20:09.622Z,1.80
2023-03-08T13:22:40.064Z,1.40
2023-03-08T13:25:11.822Z,1.47
2023-03-08T13:27:44.466Z,1.67
2023-03-08T13:30:19.637Z,1.30
2023-03-08T13:32:50.296Z,2.20
2023-03-08T13:35:20.139Z,1.83
2023-03-08T13:37:54.393Z,2.03
2023-03-08T13:40:25.358Z,2.33
2023-03-08T13:42:59.341Z,1.30
2023-03-08T13:45:28.203Z,1.47
2023-03-08T13:47:58.040Z,2.90
2023-03-08T13:50:29.539Z,1.83
2023-03-08T13:52:58.358Z,2.40
2023-03-08T13:55:31.621Z,1.50
2023-03-08T13:58:00.169Z,2.27
2023-03-08T14:00:30.205Z,1.37
2023-03-08T14:02:59.179Z,2.00
2023-03-08T14:05:28.591Z,2.27
2023-03-08T14:08:01.803Z,1.53
2023-03-08T14:10:37.544Z,2.33
2023-03-08T14:13:06.332Z,2.83
2023-03-08T14:15:37.038Z,2.07
2023-03-08T14:18:08.322Z,1.77
2023-03-08T14:20:36.961Z,3.00
2023-03-08T14:23:05.749Z,2.73
2023-03-08T14:25:35.694Z,2.10
2023-03-08T14:28:04.175Z,3.77
2023-03-08T14:30:32.693Z,1.67
2023-03-08T14:33:03.102Z,2.63
2023-03-08T14:35:32.516Z,3.00
2023-03-08T14:38:01.071Z,1.50
2023-03-08T14:40:30.970Z,2.60
2023-03-08T14:43:02.379Z,2.80
2023-03-08T14:45:33.668Z,3.07
2023-03-08T14:48:03.154Z,5.33
2023-03-08T14:50:35.848Z,2.83
2023-03-08T14:53:22.139Z,3.83
2023-03-08T14:55:50.667Z,4.00
2023-03-08T14:58:25.802Z,4.00
2023-03-08T15:00:55.470Z,5.00
2023-03-08T15:03:23.841Z,3.53
2023-03-08T15:05:52.290Z,3.57
2023-03-08T15:08:21.050Z,3.50
2023-03-08T15:10:50.119Z,3.53
2023-03-08T15:13:19.670Z,3.10
2023-03-08T15:15:49.929Z,3.17
2023-03-08T15:18:18.663Z,4.37
2023-03-08T15:20:49.685Z,2.23
2023-03-08T15:23:20.590Z,4.60
2023-03-08T15:25:48.967Z,3.90
2023-03-08T15:28:18.569Z,3.27
2023-03-08T15:30:52.855Z,3.07
2023-03-08T15:33:21.420Z,3.07
2023-03-08T15:35:50.220Z,2.63
2023-03-08T15:38:19.450Z,3.30
2023-03-08T15:40:47.833Z,2.97
2023-03-08T15:43:16.274Z,3.13
2023-03-08T15:45:44.672Z,2.30
2023-03-08T15:48:16.170Z,3.43
2023-03-08T15:50:44.786Z,3.17
2023-03-08T15:53:20.566Z,5.30
2023-03-08T15:55:54.540Z,4.13
2023-03-08T15:58:23.021Z,2.60
2023-03-08T16:00:52.221Z,4.03
2023-03-08T16:03:30.812Z,1.97
2023-03-08T16:05:59.799Z,2.63
2023-03-08T16:08:28.922Z,2.53
2023-03-08T16:11:00.417Z,1.60
2023-03-08T16:13:28.800Z,2.30
2023-03-08T16:15:59.451Z,4.13
2023-03-08T16:18:29.714Z,2.07
2023-03-08T16:20:58.592Z,3.37
2023-03-08T16:23:27.337Z,2.63
2023-03-08T16:26:13.964Z,1.70
2023-03-08T16:28:43.554Z,3.20
2023-03-08T16:31:11.968Z,2.70
2023-03-08T16:33:41.793Z,2.60
2023-03-08T16:36:10.674Z,2.10
2023-03-08T16:38:39.273Z,2.23
2023-03-08T16:41:13.294Z,2.03
2023-03-08T16:43:47.710Z,2.23
2023-03-08T16:46:17.726Z,1.90
2023-03-08T16:48:49.639Z,2.00
2023-03-08T16:51:18.740Z,2.70
2023-03-08T16:53:47.469Z,3.17
2023-03-08T16:56:18.835Z,2.40
2023-03-08T16:58:47.225Z,2.60
2023-03-08T17:01:16.517Z,2.33
2023-03-08T17:03:45.036Z,2.37
2023-03-08T17:06:15.794Z,2.83
2023-03-08T17:08:44.162Z,2.27
2023-03-08T17:11:16.510Z,2.70
2023-03-08T17:13:45.360Z,2.07
2023-03-08T17:16:14.001Z,3.57
2023-03-08T17:18:42.418Z,2.97
2023-03-08T17:21:10.863Z,2.87
2023-03-08T17:23:40.629Z,3.13
2023-03-08T17:26:09.651Z,3.83
2023-03-08T17:28:38.392Z,2.90
2023-03-08T17:31:08.887Z,3.87
2023-03-08T17:33:37.478Z,1.50
2023-03-08T17:36:06.766Z,2.90
2023-03-08T17:38:35.774Z,2.27
2023-03-08T17:41:07.288Z,2.37
2023-03-08T17:43:36.018Z,1.80
2023-03-08T17:46:05.336Z,2.03
2023-03-08T17:48:33.841Z,3.13
2023-03-08T17:51:05.697Z,3.17
2023-03-08T17:53:34.695Z,3.47
2023-03-08T17:56:03.245Z,1.83
2023-03-08T17:58:34.116Z,3.03
2023-03-08T18:01:08.757Z,1.43
2023-03-08T18:03:37.146Z,2.80
2023-03-08T18:06:05.759Z,3.63
2023-03-08T18:08:34.390Z,3.60
2023-03-08T18:11:02.824Z,4.20
2023-03-08T18:13:31.240Z,2.80
2023-03-08T18:16:03.417Z,3.13
2023-03-08T18:18:31.844Z,3.47
2023-03-08T18:21:12.219Z,2.80
2023-03-08T18:23:43.321Z,3.93
2023-03-08T18:26:12.169Z,4.67
2023-03-08T18:28:40.928Z,2.73
2023-03-08T18:31:12.064Z,4.07
2023-03-08T18:33:40.506Z,2.87
2023-03-08T18:36:08.978Z,5.47
2023-03-08T18:38:37.576Z,4.23
2023-03-08T18:41:15.881Z,5.63
2023-03-08T18:43:45.201Z,6.80
2023-03-08T18:46:15.559Z,3.67
2023-03-08T18:48:47.352Z,3.40
2023-03-08T18:51:16.619Z,2.77
2023-03-08T18:53:45.188Z,4.97
2023-03-08T18:56:13.603Z,3.90
2023-03-08T18:58:42.167Z,4.23
2023-03-08T19:01:12.596Z,5.30
2023-03-08T19:03:42.871Z,1.57
2023-03-08T19:06:11.986Z,4.37
2023-03-08T19:08:40.346Z,4.73
2023-03-08T19:11:12.625Z,5.03
2023-03-08T19:13:40.963Z,3.30
2023-03-08T19:16:17.382Z,5.13
2023-03-08T19:18:47.194Z,4.03
2023-03-08T19:21:19.314Z,6.23
2023-03-08T19:23:47.989Z,3.43
2023-03-08T19:26:36.896Z,3.47
2023-03-08T19:29:06.398Z,4.67
2023-03-08T19:31:35.135Z,6.90
2023-03-08T19:34:05.901Z,3.43
2023-03-08T19:36:35.469Z,3.57
2023-03-08T19:39:04.219Z,4.70
2023-03-08T19:41:32.658Z,3.50
2023-03-08T19:44:01.183Z,2.87
2023-03-08T19:46:29.491Z,2.27
2023-03-08T19:48:57.861Z,3.97
2023-03-08T19:51:27.681Z,4.13
2023-03-08T19:53:56.352Z,4.77
2023-03-08T19:56:25.053Z,3.00
2023-03-08T19:58:56.023Z,4.63
2023-03-08T20:01:24.554Z,2.63
2023-03-08T20:03:53.398Z,3.70
2023-03-08T20:06:25.786Z,5.10
2023-03-08T20:08:56.981Z,3.30
2023-03-08T20:11:25.644Z,4.77
2023-03-08T20:13:54.081Z,3.73
2023-03-08T20:16:23.128Z,4.67
2023-03-08T20:18:51.761Z,4.73
2023-03-08T20:21:21.448Z,5.30
2023-03-08T20:23:55.127Z,3.57
2023-03-08T20:26:25.139Z,5.93
2023-03-08T20:28:54.168Z,5.67
2023-03-08T20:31:22.561Z,5.40
2023-03-08T20:33:51.014Z,7.90
2023-03-08T20:36:19.638Z,5.83
2023-03-08T20:38:48.246Z,4.80
2023-03-08T20:41:17.430Z,4.50
2023-03-08T20:43:48.375Z,5.40
2023-03-08T20:46:18.219Z,6.27
2023-03-08T20:48:47.400Z,5.20
2023-03-08T20:51:16.801Z,5.70
2023-03-08T20:53:45.504Z,4.83
2023-03-08T20:56:14.705Z,5.53
2023-03-08T20:58:43.564Z,6.53
2023-03-08T21:01:14.150Z,5.73
2023-03-08T21:03:42.546Z,7.13
2023-03-08T21:06:14.821Z,4.60
2023-03-08T21:08:43.533Z,8.87
2023-03-08T21:11:12.238Z,7.47
2023-03-08T21:13:40.771Z,3.63
2023-03-08T21:16:10.325Z,5.80
2023-03-08T21:18:40.160Z,4.57
2023-03-08T21:21:08.629Z,3.93
2023-03-08T21:23:37.104Z,4.00
2023-03-08T21:26:05.496Z,7.33
2023-03-08T21:28:33.803Z,5.70
2023-03-08T21:31:02.234Z,4.00
2023-03-08T21:33:30.712Z,6.13
2023-03-08T21:36:01.700Z,4.73
2023-03-08T21:38:30.091Z,7.13
2023-03-08T21:40:58.431Z,9.33
2023-03-08T21:43:26.880Z,7.43
2023-03-08T21:45:55.229Z,6.97
2023-03-08T21:48:23.765Z,7.50
2023-03-08T21:50:52.163Z,4.27
2023-03-08T21:53:21.919Z,5.57
2023-03-08T21:55:50.290Z,6.07
2023-03-08T21:58:18.668Z,6.73
2023-03-08T22:00:47.108Z,9.83
2023-03-08T22:03:15.580Z,4.90
2023-03-08T22:05:44.121Z,3.07
2023-03-08T22:08:12.455Z,6.13
2023-03-08T22:10:42.296Z,6.00
2023-03-08T22:13:10.630Z,6.53
2023-03-08T22:15:39.113Z,5.03
2023-03-08T22:18:07.516Z,6.03
2023-03-08T22:20:35.959Z,4.67
2023-03-08T22:23:04.283Z,2.83
2023-03-08T22:25:32.787Z,5.90
2023-03-08T22:28:02.539Z,5.37
2023-03-08T22:30:31.039Z,7.97
2023-03-08T22:32:59.436Z,4.37
2023-03-08T22:35:27.829Z,7.37
2023-03-08T22:37:56.286Z,4.33
2023-03-08T22:40:24.718Z,5.87
2023-03-08T22:42:53.142Z,5.70
2023-03-08T22:45:22.969Z,3.47
2023-03-08T22:47:52.947Z,7.50
2023-03-08T22:50:21.426Z,3.33
2023-03-08T22:52:49.695Z,5.57
2023-03-08T22:55:18.197Z,4.73
2023-03-08T22:57:46.541Z,5.93
2023-03-08T23:00:15.547Z,8.13
2023-03-08T23:02:46.060Z,5.83
2023-03-08T23:05:15.074Z,4.20
2023-03-08T23:07:43.690Z,7.93
2023-03-08T23:10:12.956Z,7.63
2023-03-08T23:12:41.434Z,6.97
2023-03-08T23:15:10.370Z,5.13
2023-03-08T23:17:39.835Z,7.10
2023-03-08T23:20:11.851Z,5.50
2023-03-08T23:22:40.284Z,3.57
2023-03-08T23:25:10.107Z,4.93
2023-03-08T23:27:38.609Z,8.00
2023-03-08T23:30:07.451Z,4.10
2023-03-08T23:32:35.911Z,7.47
2023-03-08T23:35:04.329Z,5.67
2023-03-08T23:37:34.003Z,6.30
2023-03-08T23:40:02.445Z,6.27
2023-03-08T23:42:30.829Z,4.60
2023-03-08T23:44:59.131Z,8.40
2023-03-08T23:47:27.579Z,5.50
2023-03-08T23:49:56.016Z,7.03
2023-03-08T23:52:24.433Z,6.43
2023-03-08T23:54:54.319Z,9.40
2023-03-08T23:57:22.692Z,4.63
2023-03-08T23:59:51.018Z,6.27
